sensor_id;sensor_type;location;lat;lon;timestamp;P1;durP1;ratioP1;P2;durP2;ratioP2
51034;SDS011;37062;52.546;13.230;2023-04-10T00:01:33;64.68;;;36.78;;
51034;SDS011;37062;52.546;13.230;2023-04-10T00:04:02;64.68;;;37.25;;
51034;SDS011;37062;52.546;13.230;2023-04-10T00:06:30;126.50;;;62.08;;
51034;SDS011;37062;52.546;13.230;2023-04-10T00:08:59;76.95;;;41.78;;
51034;SDS011;37062;52.546;13.230;2023-04-10T00:11:28;43.08;;;27.80;;
51034;SDS011;37062;52.546;13.230;2023-04-10T00:13:56;52.45;;;32.65;;
51034;SDS011;37062;52.546;13.230;2023-04-10T00:16:24;32.85;;;23.25;;
51034;SDS011;37062;52.546;13.230;2023-04-10T00:18:54;29.02;;;21.80;;
51034;SDS011;37062;52.546;13.230;2023-04-10T00:21:22;34.72;;;24.08;;
51034;SDS011;37062;52.546;13.230;2023-04-10T00:23:51;37.92;;;26.88;;
51034;SDS011;37062;52.546;13.230;2023-04-10T00:26:20;38.00;;;25.88;;
51034;SDS011;37062;52.546;13.230;2023-04-10T00:28:49;35.75;;;26.30;;
51034;SDS011;37062;52.546;13.230;2023-04-10T00:31:17;39.97;;;26.10;;
51034;SDS011;37062;52.546;13.230;2023-04-10T00:33:46;36.88;;;24.55;;
51034;SDS011;37062;52.546;13.230;2023-04-10T00:36:16;43.42;;;27.48;;
51034;SDS011;37062;52.546;13.230;2023-04-10T00:38:45;40.50;;;28.08;;
51034;SDS011;37062;52.546;13.230;2023-04-10T00:41:13;39.90;;;27.23;;
51034;SDS011;37062;52.546;13.230;2023-04-10T00:43:42;76.40;;;44.50;;
51034;SDS011;37062;52.546;13.230;2023-04-10T00:46:11;46.50;;;30.02;;
51034;SDS011;37062;52.546;13.230;2023-04-10T00:48:40;174.60;;;82.85;;
51034;SDS011;37062;52.546;13.230;2023-04-10T00:51:09;78.90;;;44.97;;
51034;SDS011;37062;52.546;13.230;2023-04-10T00:53:40;37.05;;;26.30;;
51034;SDS011;37062;52.546;13.230;2023-04-10T00:56:09;40.15;;;26.10;;
51034;SDS011;37062;52.546;13.230;2023-04-10T00:58:39;41.13;;;28.73;;
51034;SDS011;37062;52.546;13.230;2023-04-10T01:01:08;45.13;;;32.28;;
51034;SDS011;37062;52.546;13.230;2023-04-10T01:03:36;45.28;;;29.77;;
51034;SDS011;37062;52.546;13.230;2023-04-10T01:06:08;44.30;;;29.95;;
51034;SDS011;37062;52.546;13.230;2023-04-10T01:08:45;43.17;;;30.50;;
51034;SDS011;37062;52.546;13.230;2023-04-10T01:11:23;43.00;;;30.98;;
51034;SDS011;37062;52.546;13.230;2023-04-10T01:14:00;45.13;;;30.55;;
51034;SDS011;37062;52.546;13.230;2023-04-10T01:16:35;50.88;;;33.40;;
51034;SDS011;37062;52.546;13.230;2023-04-10T01:19:11;47.88;;;32.20;;
51034;SDS011;37062;52.546;13.230;2023-04-10T01:21:48;42.45;;;30.08;;
51034;SDS011;37062;52.546;13.230;2023-04-10T01:24:23;39.70;;;27.08;;
51034;SDS011;37062;52.546;13.230;2023-04-10T01:27:07;41.72;;;30.05;;
51034;SDS011;37062;52.546;13.230;2023-04-10T01:29:42;45.60;;;31.10;;
51034;SDS011;37062;52.546;13.230;2023-04-10T01:32:15;44.20;;;30.88;;
51034;SDS011;37062;52.546;13.230;2023-04-10T01:34:48;41.38;;;29.17;;
51034;SDS011;37062;52.546;13.230;2023-04-10T01:37:19;42.97;;;30.40;;
51034;SDS011;37062;52.546;13.230;2023-04-10T01:39:50;42.25;;;30.27;;
51034;SDS011;37062;52.546;13.230;2023-04-10T01:42:22;51.53;;;32.90;;
51034;SDS011;37062;52.546;13.230;2023-04-10T01:44:53;43.65;;;31.10;;
51034;SDS011;37062;52.546;13.230;2023-04-10T01:47:23;47.40;;;32.35;;
51034;SDS011;37062;52.546;13.230;2023-04-10T01:49:54;38.17;;;26.90;;
51034;SDS011;37062;52.546;13.230;2023-04-10T01:52:25;39.42;;;28.20;;
51034;SDS011;37062;52.546;13.230;2023-04-10T01:55:15;37.00;;;25.58;;
51034;SDS011;37062;52.546;13.230;2023-04-10T01:57:49;39.70;;;29.23;;
51034;SDS011;37062;52.546;13.230;2023-04-10T02:00:21;40.65;;;28.70;;
51034;SDS011;37062;52.546;13.230;2023-04-10T02:02:50;36.33;;;26.52;;
51034;SDS011;37062;52.546;13.230;2023-04-10T02:05:18;36.90;;;26.45;;
51034;SDS011;37062;52.546;13.230;2023-04-10T02:07:49;33.83;;;23.83;;
51034;SDS011;37062;52.546;13.230;2023-04-10T02:10:26;39.10;;;25.85;;
51034;SDS011;37062;52.546;13.230;2023-04-10T02:12:58;42.60;;;29.67;;
51034;SDS011;37062;52.546;13.230;2023-04-10T02:15:33;37.20;;;25.85;;
51034;SDS011;37062;52.546;13.230;2023-04-10T02:18:03;36.50;;;25.88;;
51034;SDS011;37062;52.546;13.230;2023-04-10T02:20:33;37.88;;;26.30;;
51034;SDS011;37062;52.546;13.230;2023-04-10T02:23:02;34.55;;;24.42;;
51034;SDS011;37062;52.546;13.230;2023-04-10T02:25:32;37.40;;;25.85;;
51034;SDS011;37062;52.546;13.230;2023-04-10T02:28:02;41.05;;;27.83;;
51034;SDS011;37062;52.546;13.230;2023-04-10T02:30:33;44.75;;;30.25;;
51034;SDS011;37062;52.546;13.230;2023-04-10T02:33:02;40.35;;;28.98;;
51034;SDS011;37062;52.546;13.230;2023-04-10T02:35:32;38.85;;;26.65;;
51034;SDS011;37062;52.546;13.230;2023-04-10T02:38:02;39.38;;;26.98;;
51034;SDS011;37062;52.546;13.230;2023-04-10T02:40:35;37.60;;;27.45;;
51034;SDS011;37062;52.546;13.230;2023-04-10T02:43:10;37.97;;;25.73;;
51034;SDS011;37062;52.546;13.230;2023-04-10T02:45:40;38.55;;;27.05;;
51034;SDS011;37062;52.546;13.230;2023-04-10T02:48:12;40.38;;;28.55;;
51034;SDS011;37062;52.546;13.230;2023-04-10T02:50:41;41.80;;;29.98;;
51034;SDS011;37062;52.546;13.230;2023-04-10T02:53:12;44.78;;;31.15;;
51034;SDS011;37062;52.546;13.230;2023-04-10T02:55:42;36.40;;;26.05;;
51034;SDS011;37062;52.546;13.230;2023-04-10T02:58:11;38.65;;;26.63;;
51034;SDS011;37062;52.546;13.230;2023-04-10T03:00:46;36.47;;;25.70;;
51034;SDS011;37062;52.546;13.230;2023-04-10T03:03:24;35.38;;;25.88;;
51034;SDS011;37062;52.546;13.230;2023-04-10T03:05:54;40.75;;;27.90;;
51034;SDS011;37062;52.546;13.230;2023-04-10T03:08:27;37.13;;;25.52;;
51034;SDS011;37062;52.546;13.230;2023-04-10T03:10:56;37.95;;;26.15;;
51034;SDS011;37062;52.546;13.230;2023-04-10T03:13:25;35.97;;;25.42;;
51034;SDS011;37062;52.546;13.230;2023-04-10T03:15:54;41.92;;;27.50;;
51034;SDS011;37062;52.546;13.230;2023-04-10T03:18:23;35.95;;;26.05;;
51034;SDS011;37062;52.546;13.230;2023-04-10T03:20:53;34.60;;;25.03;;
51034;SDS011;37062;52.546;13.230;2023-04-10T03:23:21;38.67;;;25.67;;
51034;SDS011;37062;52.546;13.230;2023-04-10T03:25:49;37.67;;;26.55;;
51034;SDS011;37062;52.546;13.230;2023-04-10T03:28:23;39.00;;;25.67;;
51034;SDS011;37062;52.546;13.230;2023-04-10T03:30:54;35.87;;;26.53;;
51034;SDS011;37062;52.546;13.230;2023-04-10T03:33:23;35.08;;;25.25;;
51034;SDS011;37062;52.546;13.230;2023-04-10T03:35:51;38.53;;;26.42;;
51034;SDS011;37062;52.546;13.230;2023-04-10T03:38:20;38.65;;;27.13;;
51034;SDS011;37062;52.546;13.230;2023-04-10T03:40:49;34.47;;;24.45;;
51034;SDS011;37062;52.546;13.230;2023-04-10T03:43:19;37.28;;;26.65;;
51034;SDS011;37062;52.546;13.230;2023-04-10T03:45:47;31.77;;;23.33;;
51034;SDS011;37062;52.546;13.230;2023-04-10T03:48:17;31.73;;;23.17;;
51034;SDS011;37062;52.546;13.230;2023-04-10T03:50:45;33.00;;;23.27;;
51034;SDS011;37062;52.546;13.230;2023-04-10T03:53:14;33.65;;;23.23;;
51034;SDS011;37062;52.546;13.230;2023-04-10T03:55:44;36.67;;;25.25;;
51034;SDS011;37062;52.546;13.230;2023-04-10T03:58:12;33.13;;;24.13;;
51034;SDS011;37062;52.546;13.230;2023-04-10T04:00:40;32.87;;;23.87;;
51034;SDS011;37062;52.546;13.230;2023-04-10T04:03:22;29.75;;;22.15;;
51034;SDS011;37062;52.546;13.230;2023-04-10T04:06:20;32.30;;;23.05;;
51034;SDS011;37062;52.546;13.230;2023-04-10T04:09:05;33.35;;;23.17;;
51034;SDS011;37062;52.546;13.230;2023-04-10T04:11:56;29.20;;;21.27;;
51034;SDS011;37062;52.546;13.230;2023-04-10T04:14:56;33.03;;;25.27;;
51034;SDS011;37062;52.546;13.230;2023-04-10T04:17:45;34.10;;;23.93;;
51034;SDS011;37062;52.546;13.230;2023-04-10T04:20:35;35.90;;;24.23;;
51034;SDS011;37062;52.546;13.230;2023-04-10T04:23:12;32.80;;;23.10;;
51034;SDS011;37062;52.546;13.230;2023-04-10T04:26:00;30.70;;;22.67;;
51034;SDS011;37062;52.546;13.230;2023-04-10T04:28:46;32.05;;;23.90;;
51034;SDS011;37062;52.546;13.230;2023-04-10T04:31:35;35.05;;;23.63;;
51034;SDS011;37062;52.546;13.230;2023-04-10T04:34:22;33.03;;;22.05;;
51034;SDS011;37062;52.546;13.230;2023-04-10T04:37:13;32.50;;;22.60;;
51034;SDS011;37062;52.546;13.230;2023-04-10T04:40:02;30.13;;;21.83;;
51034;SDS011;37062;52.546;13.230;2023-04-10T04:42:51;32.83;;;22.83;;
51034;SDS011;37062;52.546;13.230;2023-04-10T04:45:24;30.50;;;22.40;;
51034;SDS011;37062;52.546;13.230;2023-04-10T04:48:05;30.47;;;21.67;;
51034;SDS011;37062;52.546;13.230;2023-04-10T04:50:53;31.13;;;23.33;;
51034;SDS011;37062;52.546;13.230;2023-04-10T04:53:48;29.17;;;22.63;;
51034;SDS011;37062;52.546;13.230;2023-04-10T04:56:46;33.73;;;24.13;;
51034;SDS011;37062;52.546;13.230;2023-04-10T04:59:42;31.92;;;22.73;;
51034;SDS011;37062;52.546;13.230;2023-04-10T05:02:21;31.60;;;22.15;;
51034;SDS011;37062;52.546;13.230;2023-04-10T05:05:10;27.52;;;21.45;;
51034;SDS011;37062;52.546;13.230;2023-04-10T05:07:52;26.85;;;21.00;;
51034;SDS011;37062;52.546;13.230;2023-04-10T05:10:50;27.58;;;21.48;;
51034;SDS011;37062;52.546;13.230;2023-04-10T05:13:36;29.13;;;20.00;;
51034;SDS011;37062;52.546;13.230;2023-04-10T05:16:39;29.20;;;20.35;;
51034;SDS011;37062;52.546;13.230;2023-04-10T05:19:16;24.40;;;18.67;;
51034;SDS011;37062;52.546;13.230;2023-04-10T05:22:07;24.08;;;19.13;;
51034;SDS011;37062;52.546;13.230;2023-04-10T05:24:50;24.80;;;19.17;;
51034;SDS011;37062;52.546;13.230;2023-04-10T05:27:30;24.30;;;18.15;;
51034;SDS011;37062;52.546;13.230;2023-04-10T05:30:01;25.35;;;18.98;;
51034;SDS011;37062;52.546;13.230;2023-04-10T05:32:35;21.42;;;17.45;;
51034;SDS011;37062;52.546;13.230;2023-04-10T05:35:26;24.45;;;18.83;;
51034;SDS011;37062;52.546;13.230;2023-04-10T05:38:10;22.80;;;18.27;;
51034;SDS011;37062;52.546;13.230;2023-04-10T05:41:01;23.33;;;18.90;;
51034;SDS011;37062;52.546;13.230;2023-04-10T05:43:39;23.30;;;18.17;;
51034;SDS011;37062;52.546;13.230;2023-04-10T05:46:08;20.70;;;17.45;;
51034;SDS011;37062;52.546;13.230;2023-04-10T05:49:03;20.45;;;17.58;;
51034;SDS011;37062;52.546;13.230;2023-04-10T05:51:50;19.63;;;16.65;;
51034;SDS011;37062;52.546;13.230;2023-04-10T05:54:31;23.77;;;17.58;;
51034;SDS011;37062;52.546;13.230;2023-04-10T05:57:17;22.73;;;17.90;;
51034;SDS011;37062;52.546;13.230;2023-04-10T06:00:11;22.95;;;17.83;;
51034;SDS011;37062;52.546;13.230;2023-04-10T06:03:00;20.88;;;17.95;;
51034;SDS011;37062;52.546;13.230;2023-04-10T06:05:30;22.75;;;17.42;;
51034;SDS011;37062;52.546;13.230;2023-04-10T06:08:02;20.90;;;15.60;;
51034;SDS011;37062;52.546;13.230;2023-04-10T06:10:31;20.50;;;17.08;;
51034;SDS011;37062;52.546;13.230;2023-04-10T06:13:00;20.73;;;16.77;;
51034;SDS011;37062;52.546;13.230;2023-04-10T06:15:30;17.65;;;15.55;;
51034;SDS011;37062;52.546;13.230;2023-04-10T06:17:58;20.73;;;16.75;;
51034;SDS011;37062;52.546;13.230;2023-04-10T06:20:27;23.05;;;17.80;;
51034;SDS011;37062;52.546;13.230;2023-04-10T06:22:55;20.83;;;17.35;;
51034;SDS011;37062;52.546;13.230;2023-04-10T06:25:24;21.58;;;17.67;;
51034;SDS011;37062;52.546;13.230;2023-04-10T06:27:53;20.23;;;16.00;;
51034;SDS011;37062;52.546;13.230;2023-04-10T06:30:21;26.85;;;19.38;;
51034;SDS011;37062;52.546;13.230;2023-04-10T06:32:51;22.77;;;18.88;;
51034;SDS011;37062;52.546;13.230;2023-04-10T06:35:20;23.48;;;18.33;;
51034;SDS011;37062;52.546;13.230;2023-04-10T06:37:48;23.88;;;17.92;;
51034;SDS011;37062;52.546;13.230;2023-04-10T06:40:16;23.40;;;18.33;;
51034;SDS011;37062;52.546;13.230;2023-04-10T06:42:44;24.65;;;18.73;;
51034;SDS011;37062;52.546;13.230;2023-04-10T06:45:21;22.33;;;17.88;;
51034;SDS011;37062;52.546;13.230;2023-04-10T06:47:50;24.42;;;19.52;;
51034;SDS011;37062;52.546;13.230;2023-04-10T06:50:19;24.63;;;18.15;;
51034;SDS011;37062;52.546;13.230;2023-04-10T06:52:48;22.50;;;17.33;;
51034;SDS011;37062;52.546;13.230;2023-04-10T06:55:21;24.02;;;18.38;;
51034;SDS011;37062;52.546;13.230;2023-04-10T06:57:49;22.40;;;17.15;;
51034;SDS011;37062;52.546;13.230;2023-04-10T07:00:18;23.45;;;19.90;;
51034;SDS011;37062;52.546;13.230;2023-04-10T07:02:47;24.85;;;18.90;;
51034;SDS011;37062;52.546;13.230;2023-04-10T07:05:17;20.05;;;17.10;;
51034;SDS011;37062;52.546;13.230;2023-04-10T07:07:45;20.50;;;17.88;;
51034;SDS011;37062;52.546;13.230;2023-04-10T07:10:16;21.10;;;17.42;;
51034;SDS011;37062;52.546;13.230;2023-04-10T07:12:44;21.60;;;18.00;;
51034;SDS011;37062;52.546;13.230;2023-04-10T07:15:12;23.45;;;19.08;;
51034;SDS011;37062;52.546;13.230;2023-04-10T07:17:41;19.45;;;17.42;;
51034;SDS011;37062;52.546;13.230;2023-04-10T07:20:10;22.95;;;19.52;;
51034;SDS011;37062;52.546;13.230;2023-04-10T07:22:40;24.95;;;20.85;;
51034;SDS011;37062;52.546;13.230;2023-04-10T07:25:09;24.92;;;19.92;;
51034;SDS011;37062;52.546;13.230;2023-04-10T07:27:39;23.90;;;21.40;;
51034;SDS011;37062;52.546;13.230;2023-04-10T07:30:08;21.75;;;18.92;;
51034;SDS011;37062;52.546;13.230;2023-04-10T07:32:39;22.30;;;18.02;;
51034;SDS011;37062;52.546;13.230;2023-04-10T07:35:08;22.42;;;20.08;;
51034;SDS011;37062;52.546;13.230;2023-04-10T07:37:36;23.95;;;21.35;;
51034;SDS011;37062;52.546;13.230;2023-04-10T07:40:07;22.75;;;20.35;;
51034;SDS011;37062;52.546;13.230;2023-04-10T07:42:36;22.58;;;19.88;;
51034;SDS011;37062;52.546;13.230;2023-04-10T07:45:05;23.33;;;20.83;;
51034;SDS011;37062;52.546;13.230;2023-04-10T07:47:34;25.77;;;21.60;;
51034;SDS011;37062;52.546;13.230;2023-04-10T07:50:03;22.88;;;20.42;;
51034;SDS011;37062;52.546;13.230;2023-04-10T07:52:32;23.15;;;19.90;;
51034;SDS011;37062;52.546;13.230;2023-04-10T07:55:00;21.92;;;19.63;;
51034;SDS011;37062;52.546;13.230;2023-04-10T07:57:30;22.98;;;20.10;;
51034;SDS011;37062;52.546;13.230;2023-04-10T07:59:58;18.73;;;16.73;;
51034;SDS011;37062;52.546;13.230;2023-04-10T08:02:37;20.58;;;17.17;;
51034;SDS011;37062;52.546;13.230;2023-04-10T08:05:07;21.25;;;18.40;;
51034;SDS011;37062;52.546;13.230;2023-04-10T08:07:36;23.10;;;20.27;;
51034;SDS011;37062;52.546;13.230;2023-04-10T08:10:04;22.50;;;19.00;;
51034;SDS011;37062;52.546;13.230;2023-04-10T08:12:35;20.63;;;17.52;;
51034;SDS011;37062;52.546;13.230;2023-04-10T08:15:03;21.65;;;19.35;;
51034;SDS011;37062;52.546;13.230;2023-04-10T08:17:32;21.40;;;19.17;;
51034;SDS011;37062;52.546;13.230;2023-04-10T08:20:01;21.25;;;17.48;;
51034;SDS011;37062;52.546;13.230;2023-04-10T08:22:30;22.25;;;18.17;;
51034;SDS011;37062;52.546;13.230;2023-04-10T08:24:58;23.13;;;20.23;;
51034;SDS011;37062;52.546;13.230;2023-04-10T08:27:26;18.75;;;16.75;;
51034;SDS011;37062;52.546;13.230;2023-04-10T08:29:57;19.30;;;17.25;;
51034;SDS011;37062;52.546;13.230;2023-04-10T08:32:25;19.00;;;16.88;;
51034;SDS011;37062;52.546;13.230;2023-04-10T08:34:54;20.60;;;17.95;;
51034;SDS011;37062;52.546;13.230;2023-04-10T08:37:24;22.73;;;18.00;;
51034;SDS011;37062;52.546;13.230;2023-04-10T08:39:52;23.67;;;17.38;;
51034;SDS011;37062;52.546;13.230;2023-04-10T08:42:20;18.30;;;16.35;;
51034;SDS011;37062;52.546;13.230;2023-04-10T08:44:48;17.20;;;15.40;;
51034;SDS011;37062;52.546;13.230;2023-04-10T08:47:19;19.20;;;16.33;;
51034;SDS011;37062;52.546;13.230;2023-04-10T08:49:53;18.40;;;16.40;;
51034;SDS011;37062;52.546;13.230;2023-04-10T08:52:23;17.95;;;15.98;;
51034;SDS011;37062;52.546;13.230;2023-04-10T08:54:53;19.90;;;16.02;;
51034;SDS011;37062;52.546;13.230;2023-04-10T08:57:23;19.63;;;17.45;;
51034;SDS011;37062;52.546;13.230;2023-04-10T08:59:52;19.40;;;16.55;;
51034;SDS011;37062;52.546;13.230;2023-04-10T09:02:22;16.88;;;15.15;;
51034;SDS011;37062;52.546;13.230;2023-04-10T09:04:51;17.63;;;15.68;;
51034;SDS011;37062;52.546;13.230;2023-04-10T09:07:21;17.48;;;15.20;;
51034;SDS011;37062;52.546;13.230;2023-04-10T09:09:49;17.52;;;14.95;;
51034;SDS011;37062;52.546;13.230;2023-04-10T09:12:20;15.60;;;14.00;;
51034;SDS011;37062;52.546;13.230;2023-04-10T09:14:49;17.08;;;15.27;;
51034;SDS011;37062;52.546;13.230;2023-04-10T09:17:19;18.15;;;15.43;;
51034;SDS011;37062;52.546;13.230;2023-04-10T09:19:51;14.73;;;13.23;;
51034;SDS011;37062;52.546;13.230;2023-04-10T09:22:27;18.77;;;15.35;;
51034;SDS011;37062;52.546;13.230;2023-04-10T09:24:57;15.02;;;13.38;;
51034;SDS011;37062;52.546;13.230;2023-04-10T09:27:27;16.73;;;12.93;;
51034;SDS011;37062;52.546;13.230;2023-04-10T09:29:58;18.60;;;15.73;;
51034;SDS011;37062;52.546;13.230;2023-04-10T09:32:36;12.63;;;11.32;;
51034;SDS011;37062;52.546;13.230;2023-04-10T09:35:08;14.95;;;13.07;;
51034;SDS011;37062;52.546;13.230;2023-04-10T09:37:38;16.27;;;13.45;;
51034;SDS011;37062;52.546;13.230;2023-04-10T09:40:18;16.58;;;12.75;;
51034;SDS011;37062;52.546;13.230;2023-04-10T09:42:47;15.05;;;11.68;;
51034;SDS011;37062;52.546;13.230;2023-04-10T09:45:15;16.35;;;12.52;;
51034;SDS011;37062;52.546;13.230;2023-04-10T09:50:34;13.90;;;12.35;;
51034;SDS011;37062;52.546;13.230;2023-04-10T09:53:05;12.55;;;10.45;;
51034;SDS011;37062;52.546;13.230;2023-04-10T09:55:34;15.93;;;12.77;;
51034;SDS011;37062;52.546;13.230;2023-04-10T09:58:04;14.52;;;12.73;;
51034;SDS011;37062;52.546;13.230;2023-04-10T10:00:34;16.02;;;12.48;;
51034;SDS011;37062;52.546;13.230;2023-04-10T10:03:08;17.17;;;13.52;;
51034;SDS011;37062;52.546;13.230;2023-04-10T10:05:39;14.70;;;12.68;;
51034;SDS011;37062;52.546;13.230;2023-04-10T10:08:09;15.95;;;13.07;;
51034;SDS011;37062;52.546;13.230;2023-04-10T10:10:43;15.30;;;12.40;;
51034;SDS011;37062;52.546;13.230;2023-04-10T10:13:14;15.05;;;12.95;;
51034;SDS011;37062;52.546;13.230;2023-04-10T10:15:46;15.90;;;12.55;;
51034;SDS011;37062;52.546;13.230;2023-04-10T10:18:21;14.63;;;12.02;;
51034;SDS011;37062;52.546;13.230;2023-04-10T10:20:56;15.85;;;11.32;;
51034;SDS011;37062;52.546;13.230;2023-04-10T10:23:25;16.80;;;13.10;;
51034;SDS011;37062;52.546;13.230;2023-04-10T10:25:55;15.45;;;12.07;;
51034;SDS011;37062;52.546;13.230;2023-04-10T10:28:29;18.58;;;13.98;;
51034;SDS011;37062;52.546;13.230;2023-04-10T10:30:59;16.77;;;13.73;;
51034;SDS011;37062;52.546;13.230;2023-04-10T10:33:31;17.70;;;12.95;;
51034;SDS011;37062;52.546;13.230;2023-04-10T10:36:04;16.15;;;13.55;;
51034;SDS011;37062;52.546;13.230;2023-04-10T10:38:33;17.40;;;13.00;;
51034;SDS011;37062;52.546;13.230;2023-04-10T10:41:08;17.92;;;14.10;;
51034;SDS011;37062;52.546;13.230;2023-04-10T10:43:52;18.30;;;13.15;;
51034;SDS011;37062;52.546;13.230;2023-04-10T10:46:31;19.38;;;13.27;;
51034;SDS011;37062;52.546;13.230;2023-04-10T10:49:05;17.17;;;12.18;;
51034;SDS011;37062;52.546;13.230;2023-04-10T10:51:44;16.70;;;13.18;;
51034;SDS011;37062;52.546;13.230;2023-04-10T10:54:26;17.08;;;12.80;;
51034;SDS011;37062;52.546;13.230;2023-04-10T10:56:55;18.90;;;14.38;;
51034;SDS011;37062;52.546;13.230;2023-04-10T11:02:22;15.88;;;12.60;;
51034;SDS011;37062;52.546;13.230;2023-04-10T11:04:52;17.95;;;12.73;;
51034;SDS011;37062;52.546;13.230;2023-04-10T11:07:21;16.70;;;13.13;;
51034;SDS011;37062;52.546;13.230;2023-04-10T11:13:27;12.95;;;9.13;;
51034;SDS011;37062;52.546;13.230;2023-04-10T11:15:57;14.20;;;10.23;;
51034;SDS011;37062;52.546;13.230;2023-04-10T11:22:00;12.68;;;9.57;;
51034;SDS011;37062;52.546;13.230;2023-04-10T11:30:33;15.35;;;12.00;;
51034;SDS011;37062;52.546;13.230;2023-04-10T11:33:02;13.82;;;10.68;;
51034;SDS011;37062;52.546;13.230;2023-04-10T11:35:32;14.38;;;9.88;;
51034;SDS011;37062;52.546;13.230;2023-04-10T11:40:55;11.65;;;8.98;;
51034;SDS011;37062;52.546;13.230;2023-04-10T11:43:29;13.23;;;10.10;;
51034;SDS011;37062;52.546;13.230;2023-04-10T11:46:03;14.25;;;9.75;;
51034;SDS011;37062;52.546;13.230;2023-04-10T11:48:33;13.38;;;9.57;;
51034;SDS011;37062;52.546;13.230;2023-04-10T11:51:06;12.82;;;8.80;;
51034;SDS011;37062;52.546;13.230;2023-04-10T11:53:37;12.32;;;9.13;;
51034;SDS011;37062;52.546;13.230;2023-04-10T11:56:13;13.50;;;9.90;;
51034;SDS011;37062;52.546;13.230;2023-04-10T11:58:46;14.02;;;10.07;;
51034;SDS011;37062;52.546;13.230;2023-04-10T12:01:20;14.35;;;9.00;;
51034;SDS011;37062;52.546;13.230;2023-04-10T12:03:49;12.18;;;8.98;;
51034;SDS011;37062;52.546;13.230;2023-04-10T12:06:18;12.13;;;9.48;;
51034;SDS011;37062;52.546;13.230;2023-04-10T12:08:48;12.60;;;8.32;;
51034;SDS011;37062;52.546;13.230;2023-04-10T12:11:17;9.10;;;7.65;;
51034;SDS011;37062;52.546;13.230;2023-04-10T12:13:50;12.57;;;9.00;;
51034;SDS011;37062;52.546;13.230;2023-04-10T12:16:20;11.40;;;8.27;;
51034;SDS011;37062;52.546;13.230;2023-04-10T12:18:49;13.27;;;9.63;;
51034;SDS011;37062;52.546;13.230;2023-04-10T12:21:18;12.55;;;9.57;;
51034;SDS011;37062;52.546;13.230;2023-04-10T12:23:48;13.32;;;8.55;;
51034;SDS011;37062;52.546;13.230;2023-04-10T12:26:17;11.60;;;9.18;;
51034;SDS011;37062;52.546;13.230;2023-04-10T12:28:49;10.73;;;8.57;;
51034;SDS011;37062;52.546;13.230;2023-04-10T12:31:25;11.77;;;9.00;;
51034;SDS011;37062;52.546;13.230;2023-04-10T12:33:54;10.23;;;8.00;;
51034;SDS011;37062;52.546;13.230;2023-04-10T12:36:24;10.90;;;8.82;;
51034;SDS011;37062;52.546;13.230;2023-04-10T12:38:56;12.65;;;8.68;;
51034;SDS011;37062;52.546;13.230;2023-04-10T12:41:25;12.63;;;8.63;;
51034;SDS011;37062;52.546;13.230;2023-04-10T12:44:06;12.00;;;9.02;;
51034;SDS011;37062;52.546;13.230;2023-04-10T12:46:35;11.52;;;8.32;;
51034;SDS011;37062;52.546;13.230;2023-04-10T12:49:07;10.73;;;8.40;;
51034;SDS011;37062;52.546;13.230;2023-04-10T12:51:40;10.25;;;8.90;;
51034;SDS011;37062;52.546;13.230;2023-04-10T12:54:26;13.55;;;9.45;;
51034;SDS011;37062;52.546;13.230;2023-04-10T12:56:56;11.75;;;8.48;;
51034;SDS011;37062;52.546;13.230;2023-04-10T12:59:24;15.57;;;8.75;;
51034;SDS011;37062;52.546;13.230;2023-04-10T13:01:53;11.52;;;8.38;;
51034;SDS011;37062;52.546;13.230;2023-04-10T13:04:22;9.10;;;7.88;;
51034;SDS011;37062;52.546;13.230;2023-04-10T13:06:51;13.10;;;8.68;;
51034;SDS011;37062;52.546;13.230;2023-04-10T13:09:19;9.00;;;7.75;;
51034;SDS011;37062;52.546;13.230;2023-04-10T13:11:49;13.65;;;8.65;;
51034;SDS011;37062;52.546;13.230;2023-04-10T13:14:18;12.00;;;8.18;;
51034;SDS011;37062;52.546;13.230;2023-04-10T13:16:47;10.23;;;8.20;;
51034;SDS011;37062;52.546;13.230;2023-04-10T13:19:15;11.25;;;8.13;;
51034;SDS011;37062;52.546;13.230;2023-04-10T13:21:43;11.05;;;8.05;;
51034;SDS011;37062;52.546;13.230;2023-04-10T13:24:11;12.02;;;8.00;;
51034;SDS011;37062;52.546;13.230;2023-04-10T13:26:42;11.52;;;7.63;;
51034;SDS011;37062;52.546;13.230;2023-04-10T13:29:12;12.13;;;8.48;;
51034;SDS011;37062;52.546;13.230;2023-04-10T13:31:40;9.45;;;7.63;;
51034;SDS011;37062;52.546;13.230;2023-04-10T13:34:08;9.95;;;7.30;;
51034;SDS011;37062;52.546;13.230;2023-04-10T13:36:37;19.92;;;7.40;;
51034;SDS011;37062;52.546;13.230;2023-04-10T13:39:05;9.85;;;7.00;;
51034;SDS011;37062;52.546;13.230;2023-04-10T13:41:36;9.23;;;6.80;;
51034;SDS011;37062;52.546;13.230;2023-04-10T13:44:04;9.40;;;7.00;;
51034;SDS011;37062;52.546;13.230;2023-04-10T13:46:34;8.77;;;6.47;;
51034;SDS011;37062;52.546;13.230;2023-04-10T13:49:02;8.23;;;7.15;;
51034;SDS011;37062;52.546;13.230;2023-04-10T13:51:30;9.07;;;7.28;;
51034;SDS011;37062;52.546;13.230;2023-04-10T13:53:59;10.48;;;6.90;;
51034;SDS011;37062;52.546;13.230;2023-04-10T13:56:28;10.70;;;6.90;;
51034;SDS011;37062;52.546;13.230;2023-04-10T13:58:56;9.25;;;7.28;;
51034;SDS011;37062;52.546;13.230;2023-04-10T14:01:25;17.20;;;7.88;;
51034;SDS011;37062;52.546;13.230;2023-04-10T14:03:55;10.10;;;7.65;;
51034;SDS011;37062;52.546;13.230;2023-04-10T14:06:23;9.18;;;6.57;;
51034;SDS011;37062;52.546;13.230;2023-04-10T14:08:52;8.70;;;6.45;;
51034;SDS011;37062;52.546;13.230;2023-04-10T14:11:22;9.85;;;5.78;;
51034;SDS011;37062;52.546;13.230;2023-04-10T14:13:50;7.93;;;6.10;;
51034;SDS011;37062;52.546;13.230;2023-04-10T14:16:18;6.72;;;6.03;;
51034;SDS011;37062;52.546;13.230;2023-04-10T14:18:47;8.52;;;6.43;;
51034;SDS011;37062;52.546;13.230;2023-04-10T14:21:16;7.55;;;6.38;;
51034;SDS011;37062;52.546;13.230;2023-04-10T14:23:46;10.57;;;6.95;;
51034;SDS011;37062;52.546;13.230;2023-04-10T14:26:14;10.95;;;7.00;;
51034;SDS011;37062;52.546;13.230;2023-04-10T14:28:42;10.80;;;7.60;;
51034;SDS011;37062;52.546;13.230;2023-04-10T14:31:11;10.77;;;7.15;;
51034;SDS011;37062;52.546;13.230;2023-04-10T14:33:39;9.60;;;7.25;;
51034;SDS011;37062;52.546;13.230;2023-04-10T14:36:08;9.48;;;7.55;;
51034;SDS011;37062;52.546;13.230;2023-04-10T14:38:38;8.63;;;6.30;;
51034;SDS011;37062;52.546;13.230;2023-04-10T14:41:06;9.52;;;7.47;;
51034;SDS011;37062;52.546;13.230;2023-04-10T14:43:35;7.93;;;6.13;;
51034;SDS011;37062;52.546;13.230;2023-04-10T14:46:04;10.70;;;6.88;;
51034;SDS011;37062;52.546;13.230;2023-04-10T14:48:33;9.07;;;7.07;;
51034;SDS011;37062;52.546;13.230;2023-04-10T14:51:02;8.70;;;6.80;;
51034;SDS011;37062;52.546;13.230;2023-04-10T14:53:39;8.15;;;6.60;;
51034;SDS011;37062;52.546;13.230;2023-04-10T14:56:09;10.38;;;6.93;;
51034;SDS011;37062;52.546;13.230;2023-04-10T14:58:38;8.35;;;6.97;;
51034;SDS011;37062;52.546;13.230;2023-04-10T15:01:08;9.35;;;6.80;;
51034;SDS011;37062;52.546;13.230;2023-04-10T15:03:37;7.45;;;6.63;;
51034;SDS011;37062;52.546;13.230;2023-04-10T15:06:06;8.63;;;6.90;;